Saint-Ludger, Canada
Current Conditions -  °F | °C
As of 1:28 PM on Thursday 27 Nov 2014 (Local Time) from CYSC Reporting Station
Light Snow Light Snow  
Wind Chill: 19°   Ceiling: 2300
Heat Index: 25°   Visibility: 9mi
Dew Point: 21°   Wind: 5mph
Humidity: 86%   Direction: 300°WNW
Pressure: 29.97"   Gusts: NA
Location:  45.75°N, 70.7°W
Report Text: CYSC 271828Z AUTO 30004KT 9SM -SN BKN023 OVC028 M04/M06 A2997 RMK SLP162
Loading
Personal Weather Stations






























Interactive Weather Map New forecast layout! Learn more

10-Day Weather Forecast

Advertisements
Track Severe Weather on mobile